createdAt,value
2022-11-18T00:01:41.411Z,84.99
2022-11-18T00:04:10.012Z,84.94
2022-11-18T00:06:37.773Z,84.91
2022-11-18T00:09:06.272Z,84.89
2022-11-18T00:11:52.726Z,84.89
2022-11-18T00:14:24.280Z,84.87
2022-11-18T00:17:04.789Z,84.92
2022-11-18T00:19:38.541Z,84.96
2022-11-18T00:22:11.513Z,85.02
2022-11-18T00:24:39.829Z,85.08
2022-11-18T00:27:07.819Z,85.11
2022-11-18T00:29:35.545Z,85.14
2022-11-18T00:32:03.505Z,85.16
2022-11-18T00:34:31.440Z,85.15
2022-11-18T00:36:59.424Z,85.16
2022-11-18T00:39:27.436Z,85.19
2022-11-18T00:42:14.123Z,85.20
2022-11-18T00:44:42.082Z,85.21
2022-11-18T00:47:10.010Z,85.12
2022-11-18T00:49:37.743Z,85.12
2022-11-18T00:52:06.734Z,85.12
2022-11-18T00:54:34.731Z,85.13
2022-11-18T00:57:04.601Z,85.12
2022-11-18T00:59:32.466Z,85.07
2022-11-18T01:02:00.178Z,85.07
2022-11-18T01:04:28.309Z,85.09
2022-11-18T01:06:56.217Z,85.11
2022-11-18T01:09:24.453Z,85.09
2022-11-18T01:12:10.802Z,85.12
2022-11-18T01:14:38.578Z,85.16
2022-11-18T01:17:06.593Z,85.19
2022-11-18T01:19:36.362Z,85.23
2022-11-18T01:22:04.765Z,85.21
2022-11-18T01:24:34.268Z,85.19
2022-11-18T01:27:02.760Z,85.18
2022-11-18T01:29:30.741Z,85.14
2022-11-18T01:34:46.691Z,85.20
2022-11-18T01:37:14.738Z,85.24
2022-11-18T01:39:42.487Z,85.23
2022-11-18T01:42:17.631Z,85.13
2022-11-18T01:45:30.454Z,85.18
2022-11-18T01:48:03.193Z,85.21
2022-11-18T01:50:33.297Z,85.26
2022-11-18T01:53:07.995Z,85.28
2022-11-18T01:55:41.488Z,85.30
2022-11-18T01:58:27.969Z,85.33
2022-11-18T02:00:55.834Z,85.37
2022-11-18T02:03:25.676Z,85.40
2022-11-18T02:05:55.193Z,85.38
2022-11-18T02:08:23.701Z,85.40
2022-11-18T02:10:51.619Z,85.38
2022-11-18T02:13:19.964Z,85.38
2022-11-18T02:15:53.569Z,85.40
2022-11-18T02:18:47.865Z,85.38
2022-11-18T02:21:39.451Z,85.39
2022-11-18T02:24:40.265Z,85.41
2022-11-18T02:27:18.326Z,85.38
2022-11-18T02:29:58.930Z,85.35
2022-11-18T02:32:33.832Z,85.31
2022-11-18T02:35:11.259Z,85.29
2022-11-18T02:38:00.659Z,85.28
2022-11-18T02:40:33.705Z,85.27
2022-11-18T02:43:26.670Z,85.23
2022-11-18T02:46:00.475Z,85.15
2022-11-18T02:48:32.931Z,85.08
2022-11-18T02:51:03.988Z,85.04
2022-11-18T02:53:33.807Z,85.05
2022-11-18T02:56:04.349Z,85.03
2022-11-18T02:58:32.061Z,84.99
2022-11-18T03:01:01.963Z,84.97
2022-11-18T03:03:31.990Z,84.92
2022-11-18T03:06:16.772Z,84.92
2022-11-18T03:08:55.686Z,84.95
2022-11-18T03:11:27.186Z,84.96
2022-11-18T03:14:06.058Z,84.98
2022-11-18T03:16:49.431Z,84.98
2022-11-18T03:19:41.401Z,85.01
2022-11-18T03:22:26.106Z,85.03
2022-11-18T03:25:20.229Z,85.01
2022-11-18T03:28:01.044Z,85.05
2022-11-18T03:30:31.474Z,85.06
2022-11-18T03:33:06.794Z,85.03
2022-11-18T03:35:37.751Z,85.03
2022-11-18T03:38:12.167Z,85.07
2022-11-18T03:40:46.748Z,85.08
2022-11-18T03:43:22.575Z,85.13
2022-11-18T03:46:02.118Z,85.14
2022-11-18T03:48:34.694Z,85.18
2022-11-18T03:51:08.784Z,85.21
2022-11-18T03:53:50.991Z,85.20
2022-11-18T03:56:26.250Z,85.23
2022-11-18T03:59:00.647Z,85.27
2022-11-18T04:01:35.876Z,85.25
2022-11-18T04:04:05.188Z,85.26
2022-11-18T04:06:48.452Z,85.23
2022-11-18T04:09:25.961Z,85.23
2022-11-18T04:12:02.832Z,85.20
2022-11-18T04:14:43.440Z,85.15
2022-11-18T04:17:14.904Z,85.11
2022-11-18T04:19:43.393Z,85.13
2022-11-18T04:22:12.185Z,85.15
2022-11-18T04:24:40.971Z,85.18
2022-11-18T04:27:09.493Z,85.16
2022-11-18T04:29:37.231Z,85.18
2022-11-18T04:32:06.213Z,85.22
2022-11-18T04:34:34.151Z,85.24
2022-11-18T04:37:01.905Z,85.19
2022-11-18T04:39:29.647Z,85.20
2022-11-18T04:41:57.494Z,85.21
2022-11-18T04:44:28.725Z,85.16
2022-11-18T04:46:58.487Z,85.16
2022-11-18T04:49:28.162Z,85.16
2022-11-18T04:51:57.056Z,85.17
2022-11-18T04:54:26.937Z,85.20
2022-11-18T04:56:55.818Z,85.14
2022-11-18T04:59:27.204Z,85.12
2022-11-18T05:01:56.578Z,85.10
2022-11-18T05:04:27.847Z,85.12
2022-11-18T05:06:56.257Z,85.13
2022-11-18T05:09:30.270Z,85.15
2022-11-18T05:12:19.920Z,85.19
2022-11-18T05:14:50.535Z,85.24
2022-11-18T05:17:19.643Z,85.26
2022-11-18T05:19:47.659Z,85.24
2022-11-18T05:22:16.000Z,85.23
2022-11-18T05:24:44.029Z,85.21
2022-11-18T05:27:13.086Z,85.26
2022-11-18T05:29:41.035Z,85.30
2022-11-18T05:32:09.639Z,85.32
2022-11-18T05:34:37.535Z,85.36
2022-11-18T05:37:05.479Z,85.37
2022-11-18T05:39:34.225Z,85.31
2022-11-18T05:42:21.364Z,85.31
2022-11-18T05:44:57.731Z,85.26
2022-11-18T05:47:27.421Z,85.17
2022-11-18T05:49:55.512Z,85.18
2022-11-18T05:52:23.291Z,85.17
2022-11-18T05:54:51.655Z,85.18
2022-11-18T05:57:19.405Z,85.19
2022-11-18T05:59:47.156Z,85.20
2022-11-18T06:02:20.525Z,85.18
2022-11-18T06:05:00.050Z,85.20
2022-11-18T06:07:30.296Z,85.22
2022-11-18T06:10:05.588Z,85.22
2022-11-18T06:12:43.017Z,85.24
2022-11-18T06:15:28.570Z,85.22
2022-11-18T06:18:06.583Z,85.16
2022-11-18T06:20:36.691Z,85.14
2022-11-18T06:23:06.038Z,85.10
2022-11-18T06:25:39.221Z,85.09
2022-11-18T06:28:11.463Z,85.15
2022-11-18T06:30:40.372Z,85.16
2022-11-18T06:33:09.304Z,85.23
2022-11-18T06:35:37.068Z,85.30
2022-11-18T06:38:04.906Z,85.36
2022-11-18T06:40:34.943Z,85.44
2022-11-18T06:43:30.218Z,85.51
2022-11-18T06:46:19.178Z,85.59
2022-11-18T06:48:48.022Z,85.66
2022-11-18T06:51:16.821Z,85.68
2022-11-18T06:53:44.562Z,85.75
2022-11-18T06:56:16.717Z,85.82
2022-11-18T06:58:46.599Z,85.85
2022-11-18T07:01:14.665Z,85.89
2022-11-18T07:03:44.891Z,85.84
2022-11-18T07:06:16.270Z,85.84
2022-11-18T07:08:45.126Z,85.86
2022-11-18T07:11:16.748Z,85.88
2022-11-18T07:13:46.060Z,85.90
2022-11-18T07:16:17.609Z,85.92
2022-11-18T07:18:49.596Z,85.93
2022-11-18T07:21:25.857Z,85.90
2022-11-18T07:23:56.376Z,85.84
2022-11-18T07:26:24.867Z,85.79
2022-11-18T07:28:54.450Z,85.75
2022-11-18T07:31:22.546Z,85.70
2022-11-18T07:33:55.243Z,85.68
2022-11-18T07:36:27.786Z,85.66
2022-11-18T07:39:00.117Z,85.62
2022-11-18T07:41:30.094Z,85.60
2022-11-18T07:44:01.110Z,85.57
2022-11-18T07:46:30.638Z,85.58
2022-11-18T07:49:00.971Z,85.56
2022-11-18T07:51:32.776Z,85.53
2022-11-18T07:54:01.749Z,85.51
2022-11-18T07:56:29.530Z,85.48
2022-11-18T07:58:57.325Z,85.47
2022-11-18T08:01:30.923Z,85.46
2022-11-18T08:04:05.382Z,85.45
2022-11-18T08:06:35.196Z,85.35
2022-11-18T08:09:04.656Z,85.34
2022-11-18T08:11:33.137Z,85.29
2022-11-18T08:14:01.438Z,85.26
2022-11-18T08:16:30.093Z,85.23
2022-11-18T08:18:59.828Z,85.18
2022-11-18T08:21:27.651Z,85.06
2022-11-18T08:23:57.585Z,85.03
2022-11-18T08:26:26.974Z,85.03
2022-11-18T08:28:55.288Z,84.98
2022-11-18T08:31:28.454Z,84.98
2022-11-18T08:34:07.078Z,84.97
2022-11-18T08:36:37.617Z,84.92
2022-11-18T08:39:08.700Z,84.86
2022-11-18T08:41:39.206Z,84.82
2022-11-18T08:44:10.321Z,84.83
2022-11-18T08:46:38.386Z,84.83
2022-11-18T08:49:06.478Z,84.83
2022-11-18T08:51:34.480Z,84.79
2022-11-18T08:54:02.496Z,84.75
2022-11-18T08:56:31.397Z,84.73
2022-11-18T08:59:02.110Z,84.71
2022-11-18T09:01:30.038Z,84.68
2022-11-18T09:03:58.259Z,84.64
2022-11-18T09:06:30.602Z,84.58
2022-11-18T09:09:02.082Z,84.54
2022-11-18T09:11:35.588Z,84.52
2022-11-18T09:16:51.693Z,84.47
2022-11-18T09:22:08.692Z,84.43
2022-11-18T09:24:37.555Z,84.36
2022-11-18T09:27:12.144Z,84.31
2022-11-18T09:29:43.897Z,84.29
2022-11-18T09:32:12.372Z,84.29
2022-11-18T09:34:40.129Z,84.24
2022-11-18T09:37:08.318Z,84.21
2022-11-18T09:39:37.459Z,84.21
2022-11-18T09:42:26.973Z,84.21
2022-11-18T09:45:11.835Z,84.13
2022-11-18T09:47:41.487Z,84.12
2022-11-18T09:50:47.177Z,84.12
2022-11-18T09:53:18.766Z,84.17
2022-11-18T09:55:48.171Z,84.15
2022-11-18T09:58:21.758Z,84.12
2022-11-18T10:00:49.711Z,84.10
2022-11-18T10:03:29.115Z,84.10
2022-11-18T10:06:12.519Z,84.05
2022-11-18T10:09:05.902Z,84.00
2022-11-18T10:11:47.592Z,84.02
2022-11-18T10:14:44.699Z,84.00
2022-11-18T10:17:31.513Z,83.98
2022-11-18T10:20:10.496Z,83.96
2022-11-18T10:22:56.182Z,83.96
2022-11-18T10:25:24.433Z,83.94
2022-11-18T10:27:52.895Z,83.88
2022-11-18T10:30:26.266Z,83.92
2022-11-18T10:33:04.540Z,83.92
2022-11-18T10:35:36.246Z,83.93
2022-11-18T10:38:13.149Z,83.95
2022-11-18T10:40:49.831Z,83.97
2022-11-18T10:43:45.635Z,83.96
2022-11-18T10:46:31.190Z,83.96
2022-11-18T10:49:11.161Z,83.92
2022-11-18T10:51:42.667Z,83.91
2022-11-18T10:54:20.031Z,83.89
2022-11-18T10:56:57.742Z,83.87
2022-11-18T10:59:56.899Z,83.85
2022-11-18T11:02:41.487Z,83.84
2022-11-18T11:05:23.613Z,83.88
2022-11-18T11:08:36.242Z,83.89
2022-11-18T11:11:05.395Z,83.93
2022-11-18T11:13:39.032Z,83.93
2022-11-18T11:16:07.431Z,83.93
2022-11-18T11:18:41.778Z,83.95
2022-11-18T11:21:14.346Z,83.95
2022-11-18T11:23:43.808Z,83.94
2022-11-18T11:30:01.256Z,83.91
2022-11-18T11:32:43.702Z,83.93
2022-11-18T11:35:20.359Z,83.90
2022-11-18T11:37:55.805Z,83.88
2022-11-18T11:40:55.919Z,83.88
2022-11-18T11:43:55.599Z,83.90
2022-11-18T11:47:27.294Z,83.85
2022-11-18T11:50:02.168Z,83.82
2022-11-18T11:52:43.506Z,83.86
2022-11-18T11:55:50.010Z,83.91
2022-11-18T11:58:33.208Z,83.93
2022-11-18T12:01:14.380Z,83.93
2022-11-18T12:03:53.508Z,83.88
2022-11-18T12:06:21.973Z,83.86
2022-11-18T12:09:08.006Z,83.84
2022-11-18T12:11:55.886Z,83.80
2022-11-18T12:14:46.715Z,83.69
2022-11-18T12:17:21.767Z,83.63
2022-11-18T12:19:49.728Z,83.60
2022-11-18T12:22:17.493Z,83.57
2022-11-18T12:24:45.227Z,83.55
2022-11-18T12:27:34.795Z,83.49
2022-11-18T12:30:04.506Z,83.46
2022-11-18T12:32:58.048Z,83.44
2022-11-18T12:35:28.737Z,83.43
2022-11-18T12:37:56.444Z,83.41
2022-11-18T12:40:48.869Z,83.42
2022-11-18T12:43:50.847Z,83.42
2022-11-18T12:46:49.597Z,83.41
2022-11-18T12:49:23.732Z,83.41
2022-11-18T12:51:59.752Z,83.40
2022-11-18T12:54:28.044Z,83.38
2022-11-18T12:57:00.296Z,83.39
2022-11-18T12:59:36.883Z,83.39
2022-11-18T13:02:12.023Z,83.39
2022-11-18T13:04:45.827Z,83.40
2022-11-18T13:07:37.735Z,83.41
2022-11-18T13:10:29.609Z,83.40
2022-11-18T13:12:57.749Z,83.40
2022-11-18T13:16:04.859Z,83.38
2022-11-18T13:18:32.650Z,83.37
2022-11-18T13:21:20.783Z,83.37
2022-11-18T13:24:00.397Z,83.33
2022-11-18T13:26:32.570Z,83.36
2022-11-18T13:29:37.752Z,83.32
2022-11-18T13:32:21.064Z,83.30
2022-11-18T13:34:55.163Z,83.34
2022-11-18T13:37:29.510Z,83.35
2022-11-18T13:39:57.936Z,83.32
2022-11-18T13:42:34.673Z,83.34
2022-11-18T13:45:03.801Z,83.34
2022-11-18T13:47:45.372Z,83.38
2022-11-18T13:50:15.458Z,83.38
2022-11-18T13:53:02.041Z,83.40
2022-11-18T13:55:36.860Z,83.38
2022-11-18T13:59:02.500Z,83.38
2022-11-18T14:01:33.826Z,83.42
2022-11-18T14:04:05.367Z,83.44
2022-11-18T14:06:41.361Z,83.45
2022-11-18T14:09:15.596Z,83.46
2022-11-18T14:11:57.561Z,83.42
2022-11-18T14:14:38.125Z,83.39
2022-11-18T14:17:21.859Z,83.37
2022-11-18T14:19:53.471Z,83.37
2022-11-18T14:22:26.395Z,83.30
2022-11-18T14:25:00.865Z,83.29
2022-11-18T14:27:36.747Z,83.24
2022-11-18T14:30:23.459Z,83.21
2022-11-18T14:33:15.017Z,83.21
2022-11-18T14:36:14.549Z,83.21
2022-11-18T14:39:11.233Z,83.20
2022-11-18T14:41:47.379Z,83.18
2022-11-18T14:44:16.413Z,83.21
2022-11-18T14:46:48.892Z,83.26
2022-11-18T14:49:19.365Z,83.27
2022-11-18T14:51:48.576Z,83.25
2022-11-18T14:54:25.433Z,83.25
2022-11-18T14:57:03.101Z,83.25
2022-11-18T14:59:31.022Z,83.31
2022-11-18T15:01:59.838Z,83.36
2022-11-18T15:04:28.294Z,83.41
2022-11-18T15:06:56.689Z,83.45
2022-11-18T15:09:24.778Z,83.51
2022-11-18T15:11:52.551Z,83.56
2022-11-18T15:14:20.648Z,83.59
2022-11-18T15:16:49.015Z,83.65
2022-11-18T15:19:16.841Z,83.68
2022-11-18T15:21:47.040Z,83.69
2022-11-18T15:24:14.879Z,83.74
2022-11-18T15:26:45.968Z,83.71
2022-11-18T15:29:22.411Z,83.77
2022-11-18T15:31:51.593Z,83.83
2022-11-18T15:34:21.634Z,83.87
2022-11-18T15:36:50.242Z,83.92
2022-11-18T15:39:18.015Z,83.97
2022-11-18T15:41:46.506Z,84.02
2022-11-18T15:44:18.161Z,84.08
2022-11-18T15:46:48.321Z,84.14
2022-11-18T15:49:17.731Z,84.21
2022-11-18T15:51:45.982Z,84.25
2022-11-18T15:54:13.735Z,84.31
2022-11-18T15:56:42.179Z,84.33
2022-11-18T15:59:12.355Z,84.36
2022-11-18T16:01:43.293Z,84.42
2022-11-18T16:04:13.838Z,84.43
2022-11-18T16:06:43.692Z,84.39
2022-11-18T16:09:16.492Z,84.33
2022-11-18T16:12:03.632Z,84.37
2022-11-18T16:14:33.429Z,84.34
2022-11-18T16:17:01.205Z,84.39
2022-11-18T16:19:33.746Z,84.42
2022-11-18T16:22:01.888Z,84.47
2022-11-18T16:24:29.769Z,84.48
2022-11-18T16:26:57.577Z,84.49
2022-11-18T16:29:25.635Z,84.47
2022-11-18T16:31:54.964Z,84.49
2022-11-18T16:34:25.476Z,84.53
2022-11-18T16:36:59.969Z,84.55
2022-11-18T16:39:29.563Z,84.59
2022-11-18T16:42:07.501Z,84.62
2022-11-18T16:44:37.852Z,84.65
2022-11-18T16:47:13.906Z,84.64
2022-11-18T16:49:44.335Z,84.60
2022-11-18T16:52:12.706Z,84.60
2022-11-18T16:54:45.154Z,84.61
2022-11-18T16:57:14.448Z,84.55
2022-11-18T16:59:42.336Z,84.50
2022-11-18T17:02:13.221Z,84.46
2022-11-18T17:04:42.286Z,84.42
2022-11-18T17:07:10.171Z,84.33
2022-11-18T17:09:41.955Z,84.29
2022-11-18T17:12:09.714Z,84.24
2022-11-18T17:14:38.811Z,84.19
2022-11-18T17:17:07.929Z,84.14
2022-11-18T17:19:35.949Z,84.09
2022-11-18T17:22:04.180Z,84.07
2022-11-18T17:24:33.139Z,84.02
2022-11-18T17:27:01.325Z,84.00
2022-11-18T17:29:29.134Z,83.92
2022-11-18T17:31:56.852Z,83.93
2022-11-18T17:34:24.578Z,83.92
2022-11-18T17:36:52.576Z,83.91
2022-11-18T17:39:21.115Z,83.91
2022-11-18T17:42:07.731Z,83.85
2022-11-18T17:44:35.499Z,83.82
2022-11-18T17:47:03.366Z,83.76
2022-11-18T17:49:31.179Z,83.72
2022-11-18T17:51:58.980Z,83.69
2022-11-18T17:54:26.822Z,83.67
2022-11-18T17:56:54.685Z,83.65
2022-11-18T17:59:23.342Z,83.61
2022-11-18T18:01:57.311Z,83.61
2022-11-18T18:04:27.705Z,83.55
2022-11-18T18:06:55.616Z,83.48
2022-11-18T18:09:28.838Z,83.44
2022-11-18T18:12:00.412Z,83.44
2022-11-18T18:14:28.644Z,83.40
2022-11-18T18:16:56.477Z,83.34
2022-11-18T18:19:25.400Z,83.28
2022-11-18T18:21:53.815Z,83.22
2022-11-18T18:24:22.477Z,83.20
2022-11-18T18:26:50.959Z,83.15
2022-11-18T18:29:18.910Z,83.09
2022-11-18T18:31:46.664Z,83.05
2022-11-18T18:34:15.387Z,83.04
2022-11-18T18:36:43.684Z,83.06
2022-11-18T18:39:11.411Z,82.92
2022-11-18T18:41:39.194Z,82.84
2022-11-18T18:44:07.532Z,82.72
2022-11-18T18:46:36.967Z,82.69
2022-11-18T18:49:06.299Z,82.67
2022-11-18T18:51:42.491Z,82.69
2022-11-18T18:54:12.817Z,82.71
2022-11-18T18:56:40.756Z,82.74
2022-11-18T18:59:09.968Z,82.73
2022-11-18T19:01:39.444Z,82.72
2022-11-18T19:04:11.592Z,82.70
2022-11-18T19:06:53.248Z,82.71
2022-11-18T19:09:25.324Z,82.69
2022-11-18T19:12:12.977Z,82.61
2022-11-18T19:14:41.721Z,82.54
2022-11-18T19:17:11.619Z,82.56
2022-11-18T19:20:00.274Z,82.54
2022-11-18T19:22:33.341Z,82.55
2022-11-18T19:25:01.962Z,82.55
2022-11-18T19:27:30.762Z,82.57
2022-11-18T19:29:58.637Z,82.59
2022-11-18T19:32:26.456Z,82.64
2022-11-18T19:34:54.264Z,82.65
2022-11-18T19:37:22.061Z,82.65
2022-11-18T19:39:49.900Z,82.58
2022-11-18T19:42:17.686Z,82.46
2022-11-18T19:44:45.531Z,82.40
2022-11-18T19:47:13.277Z,82.39
2022-11-18T19:49:41.110Z,82.36
2022-11-18T19:52:09.610Z,82.36
2022-11-18T19:54:39.153Z,82.34
2022-11-18T19:57:08.384Z,82.26
2022-11-18T19:59:36.436Z,82.17
2022-11-18T20:02:05.265Z,82.08
2022-11-18T20:04:33.231Z,82.08
2022-11-18T20:07:01.087Z,82.06
2022-11-18T20:09:29.405Z,81.95
2022-11-18T20:11:57.249Z,81.93
2022-11-18T20:14:25.567Z,81.89
2022-11-18T20:16:53.366Z,81.87
2022-11-18T20:19:21.455Z,81.85
2022-11-18T20:21:49.649Z,81.79
2022-11-18T20:24:18.997Z,81.74
2022-11-18T20:26:47.852Z,81.72
2022-11-18T20:29:15.875Z,81.68
2022-11-18T20:31:44.112Z,81.63
2022-11-18T20:34:16.698Z,81.58
2022-11-18T20:36:45.067Z,81.53
2022-11-18T20:39:16.753Z,81.55
2022-11-18T20:42:04.384Z,81.52
2022-11-18T20:44:32.226Z,81.42
2022-11-18T20:47:00.481Z,81.30
2022-11-18T20:49:28.713Z,81.27
2022-11-18T20:51:56.942Z,81.30
2022-11-18T20:54:24.720Z,81.29
2022-11-18T20:56:52.510Z,81.31
2022-11-18T20:59:20.532Z,81.31
2022-11-18T21:01:49.503Z,81.29
2022-11-18T21:04:17.636Z,81.32
2022-11-18T21:06:46.080Z,81.36
2022-11-18T21:09:14.662Z,81.39
2022-11-18T21:11:42.429Z,81.43
2022-11-18T21:14:25.742Z,81.47
2022-11-18T21:16:57.755Z,81.46
2022-11-18T21:19:26.708Z,81.50
2022-11-18T21:21:56.094Z,81.51
2022-11-18T21:24:29.027Z,81.54
2022-11-18T21:26:58.369Z,81.55
2022-11-18T21:29:28.721Z,81.60
2022-11-18T21:32:01.691Z,81.60
2022-11-18T21:34:30.591Z,81.85
2022-11-18T21:36:58.408Z,82.00
2022-11-18T21:39:27.571Z,81.94
2022-11-18T21:41:57.120Z,81.97
2022-11-18T21:44:28.689Z,82.03
2022-11-18T21:46:57.946Z,82.16
2022-11-18T21:49:25.707Z,82.20
2022-11-18T21:51:53.756Z,82.25
2022-11-18T21:54:21.530Z,82.38
2022-11-18T21:56:49.514Z,82.46
2022-11-18T21:59:18.253Z,82.55
2022-11-18T22:01:46.578Z,82.62
2022-11-18T22:04:34.388Z,82.65
2022-11-18T22:07:02.265Z,82.90
2022-11-18T22:09:35.882Z,82.99
2022-11-18T22:12:07.112Z,82.97
2022-11-18T22:14:36.722Z,82.95
2022-11-18T22:17:05.241Z,82.95
2022-11-18T22:19:33.101Z,82.98
2022-11-18T22:22:01.384Z,83.03
2022-11-18T22:24:29.152Z,83.12
2022-11-18T22:26:58.089Z,83.14
2022-11-18T22:29:26.439Z,83.20
2022-11-18T22:31:54.841Z,83.23
2022-11-18T22:34:22.576Z,83.27
2022-11-18T22:36:50.360Z,83.35
2022-11-18T22:39:18.392Z,83.40
2022-11-18T22:42:05.505Z,83.50
2022-11-18T22:44:33.315Z,83.63
2022-11-18T22:47:01.079Z,83.86
2022-11-18T22:49:29.083Z,83.97
2022-11-18T22:51:57.092Z,84.00
2022-11-18T22:54:38.866Z,84.07
2022-11-18T22:57:09.122Z,84.15
2022-11-18T22:59:37.114Z,84.20
2022-11-18T23:02:06.104Z,84.24
2022-11-18T23:04:34.325Z,84.30
2022-11-18T23:07:02.742Z,84.36
2022-11-18T23:09:30.981Z,84.36
2022-11-18T23:12:17.531Z,84.44
2022-11-18T23:14:46.247Z,84.59
2022-11-18T23:17:14.668Z,84.67
2022-11-18T23:19:44.212Z,84.78
2022-11-18T23:22:13.730Z,84.95
2022-11-18T23:24:41.631Z,85.11
2022-11-18T23:27:10.093Z,85.10
2022-11-18T23:29:37.913Z,85.06
2022-11-18T23:32:05.747Z,85.07
2022-11-18T23:34:33.907Z,85.10
2022-11-18T23:37:01.695Z,85.10
2022-11-18T23:39:29.754Z,85.08
2022-11-18T23:41:58.053Z,85.10
2022-11-18T23:44:45.354Z,85.09
2022-11-18T23:47:14.495Z,85.15
2022-11-18T23:49:42.259Z,85.17
2022-11-18T23:52:10.184Z,85.20
2022-11-18T23:54:38.076Z,85.24
2022-11-18T23:57:05.933Z,85.26
2022-11-18T23:59:33.856Z,85.33
